sensor_id;sensor_type;location;lat;lon;timestamp;pressure;altitude;pressure_sealevel;temperature;humidity
78409;BME280;67697;50.750;-3.270;2023-08-31T00:01:28;100406.14;;;19.94;48.32
78409;BME280;67697;50.750;-3.270;2023-08-31T00:03:54;100400.55;;;19.81;49.05
78409;BME280;67697;50.750;-3.270;2023-08-31T00:06:19;100395.33;;;20.16;48.33
78409;BME280;67697;50.750;-3.270;2023-08-31T00:08:45;100397.65;;;19.23;50.05
78409;BME280;67697;50.750;-3.270;2023-08-31T00:11:10;100395.53;;;19.54;48.81
78409;BME280;67697;50.750;-3.270;2023-08-31T00:13:36;100391.21;;;19.55;48.73
78409;BME280;67697;50.750;-3.270;2023-08-31T00:16:01;100390.48;;;19.57;48.70
78409;BME280;67697;50.750;-3.270;2023-08-31T00:18:27;100388.22;;;19.59;48.82
78409;BME280;67697;50.750;-3.270;2023-08-31T00:20:53;100390.67;;;17.40;53.49
78409;BME280;67697;50.750;-3.270;2023-08-31T00:23:18;100393.52;;;18.77;51.36
78409;BME280;67697;50.750;-3.270;2023-08-31T00:25:44;100391.84;;;19.58;49.14
78409;BME280;67697;50.750;-3.270;2023-08-31T00:28:09;100393.32;;;18.67;50.64
78409;BME280;67697;50.750;-3.270;2023-08-31T00:30:35;100386.91;;;20.15;48.09
78409;BME280;67697;50.750;-3.270;2023-08-31T00:35:26;100388.81;;;18.27;50.52
78409;BME280;67697;50.750;-3.270;2023-08-31T00:37:51;100386.24;;;19.37;49.59
78409;BME280;67697;50.750;-3.270;2023-08-31T00:40:17;100385.92;;;19.52;48.75
78409;BME280;67697;50.750;-3.270;2023-08-31T00:42:42;100383.86;;;19.77;48.45
78409;BME280;67697;50.750;-3.270;2023-08-31T00:45:09;100385.30;;;19.94;47.81
78409;BME280;67697;50.750;-3.270;2023-08-31T00:47:34;100382.55;;;19.56;47.85
78409;BME280;67697;50.750;-3.270;2023-08-31T00:50:00;100375.80;;;20.01;47.62
78409;BME280;67697;50.750;-3.270;2023-08-31T00:52:24;100370.12;;;20.46;47.02
78409;BME280;67697;50.750;-3.270;2023-08-31T00:54:51;100367.06;;;20.71;46.69
78409;BME280;67697;50.750;-3.270;2023-08-31T00:57:15;100361.42;;;20.31;47.31
78409;BME280;67697;50.750;-3.270;2023-08-31T00:59:41;100356.30;;;20.55;46.29
78409;BME280;67697;50.750;-3.270;2023-08-31T01:02:11;100353.08;;;19.97;46.80
78409;BME280;67697;50.750;-3.270;2023-08-31T01:04:41;100345.99;;;20.42;46.35
78409;BME280;67697;50.750;-3.270;2023-08-31T01:07:03;100339.87;;;19.95;46.92
78409;BME280;67697;50.750;-3.270;2023-08-31T01:09:30;100339.29;;;20.19;47.08
78409;BME280;67697;50.750;-3.270;2023-08-31T01:11:57;100341.60;;;19.62;47.98
78409;BME280;67697;50.750;-3.270;2023-08-31T01:14:17;100341.73;;;19.77;48.40
78409;BME280;67697;50.750;-3.270;2023-08-31T01:16:42;100341.79;;;19.67;47.86
78409;BME280;67697;50.750;-3.270;2023-08-31T01:19:13;100344.76;;;18.54;49.75
78409;BME280;67697;50.750;-3.270;2023-08-31T01:21:36;100350.90;;;17.29;53.15
78409;BME280;67697;50.750;-3.270;2023-08-31T01:23:57;100344.82;;;18.56;50.22
78409;BME280;67697;50.750;-3.270;2023-08-31T01:26:23;100341.64;;;19.60;48.03
78409;BME280;67697;50.750;-3.270;2023-08-31T01:28:48;100343.23;;;19.21;48.65
78409;BME280;67697;50.750;-3.270;2023-08-31T01:31:14;100342.03;;;19.65;47.69
78409;BME280;67697;50.750;-3.270;2023-08-31T01:33:39;100339.43;;;19.94;47.88
78409;BME280;67697;50.750;-3.270;2023-08-31T01:36:08;100336.23;;;20.07;47.09
78409;BME280;67697;50.750;-3.270;2023-08-31T01:38:32;100332.91;;;20.17;47.57
78409;BME280;67697;50.750;-3.270;2023-08-31T01:41:00;100323.38;;;19.98;47.91
78409;BME280;67697;50.750;-3.270;2023-08-31T01:43:21;100321.98;;;19.92;48.02
78409;BME280;67697;50.750;-3.270;2023-08-31T01:45:48;100319.07;;;19.65;48.00
78409;BME280;67697;50.750;-3.270;2023-08-31T01:48:13;100316.58;;;19.35;49.32
78409;BME280;67697;50.750;-3.270;2023-08-31T01:50:38;100313.26;;;19.61;48.04
78409;BME280;67697;50.750;-3.270;2023-08-31T01:53:03;100313.71;;;19.30;48.76
78409;BME280;67697;50.750;-3.270;2023-08-31T01:55:29;100315.91;;;19.27;48.14
78409;BME280;67697;50.750;-3.270;2023-08-31T01:57:54;100314.66;;;19.07;49.16
78409;BME280;67697;50.750;-3.270;2023-08-31T02:00:20;100311.88;;;20.06;47.36
78409;BME280;67697;50.750;-3.270;2023-08-31T02:02:46;100305.69;;;20.03;47.01
78409;BME280;67697;50.750;-3.270;2023-08-31T02:05:11;100300.17;;;20.15;47.35
78409;BME280;67697;50.750;-3.270;2023-08-31T02:07:37;100301.72;;;19.90;48.01
78409;BME280;67697;50.750;-3.270;2023-08-31T02:10:02;100302.67;;;19.60;47.91
78409;BME280;67697;50.750;-3.270;2023-08-31T02:12:28;100300.04;;;19.49;48.59
78409;BME280;67697;50.750;-3.270;2023-08-31T02:14:53;100297.12;;;19.93;47.94
78409;BME280;67697;50.750;-3.270;2023-08-31T02:17:19;100292.90;;;19.72;47.73
78409;BME280;67697;50.750;-3.270;2023-08-31T02:19:44;100287.37;;;19.09;48.98
78409;BME280;67697;50.750;-3.270;2023-08-31T02:22:10;100293.88;;;19.28;48.39
78409;BME280;67697;50.750;-3.270;2023-08-31T02:24:36;100294.05;;;19.12;48.81
78409;BME280;67697;50.750;-3.270;2023-08-31T02:27:01;100289.10;;;19.53;48.44
78409;BME280;67697;50.750;-3.270;2023-08-31T02:29:27;100283.68;;;20.08;47.94
78409;BME280;67697;50.750;-3.270;2023-08-31T02:31:52;100281.89;;;19.11;49.15
78409;BME280;67697;50.750;-3.270;2023-08-31T02:34:18;100279.21;;;19.20;50.08
78409;BME280;67697;50.750;-3.270;2023-08-31T02:36:43;100279.95;;;19.21;49.96
78409;BME280;67697;50.750;-3.270;2023-08-31T02:39:09;100278.79;;;19.27;49.96
78409;BME280;67697;50.750;-3.270;2023-08-31T02:41:34;100276.57;;;19.14;50.48
78409;BME280;67697;50.750;-3.270;2023-08-31T02:44:00;100272.80;;;19.00;50.80
78409;BME280;67697;50.750;-3.270;2023-08-31T02:46:25;100269.60;;;19.15;51.26
78409;BME280;67697;50.750;-3.270;2023-08-31T02:48:51;100268.84;;;18.95;51.42
78409;BME280;67697;50.750;-3.270;2023-08-31T02:51:17;100265.92;;;19.05;50.91
78409;BME280;67697;50.750;-3.270;2023-08-31T02:53:42;100260.19;;;19.28;50.88
78409;BME280;67697;50.750;-3.270;2023-08-31T02:56:08;100258.82;;;18.93;51.02
78409;BME280;67697;50.750;-3.270;2023-08-31T02:58:34;100257.29;;;18.91;52.41
78409;BME280;67697;50.750;-3.270;2023-08-31T03:01:07;100252.81;;;18.65;52.39
78409;BME280;67697;50.750;-3.270;2023-08-31T03:03:24;100252.44;;;18.66;52.69
78409;BME280;67697;50.750;-3.270;2023-08-31T03:05:55;100248.23;;;18.53;52.84
78409;BME280;67697;50.750;-3.270;2023-08-31T03:08:15;100244.32;;;18.53;52.67
78409;BME280;67697;50.750;-3.270;2023-08-31T03:10:41;100244.96;;;18.69;52.65
78409;BME280;67697;50.750;-3.270;2023-08-31T03:13:07;100243.67;;;18.37;52.67
78409;BME280;67697;50.750;-3.270;2023-08-31T03:15:32;100241.14;;;18.22;53.69
78409;BME280;67697;50.750;-3.270;2023-08-31T03:17:58;100242.51;;;18.31;52.79
78409;BME280;67697;50.750;-3.270;2023-08-31T03:20:24;100246.15;;;18.66;52.78
78409;BME280;67697;50.750;-3.270;2023-08-31T03:22:49;100240.87;;;19.25;51.40
78409;BME280;67697;50.750;-3.270;2023-08-31T03:25:15;100239.21;;;19.62;50.68
78409;BME280;67697;50.750;-3.270;2023-08-31T03:27:40;100235.91;;;19.59;50.91
78409;BME280;67697;50.750;-3.270;2023-08-31T03:30:07;100233.15;;;19.31;50.63
78409;BME280;67697;50.750;-3.270;2023-08-31T03:32:31;100237.84;;;18.65;52.59
78409;BME280;67697;50.750;-3.270;2023-08-31T03:34:57;100242.88;;;18.24;54.43
78409;BME280;67697;50.750;-3.270;2023-08-31T03:37:23;100240.01;;;19.34;51.41
78409;BME280;67697;50.750;-3.270;2023-08-31T03:39:48;100239.14;;;19.47;51.36
78409;BME280;67697;50.750;-3.270;2023-08-31T03:42:14;100240.38;;;18.10;53.69
78409;BME280;67697;50.750;-3.270;2023-08-31T03:44:39;100236.12;;;19.13;52.20
78409;BME280;67697;50.750;-3.270;2023-08-31T03:47:05;100237.50;;;19.54;51.42
78409;BME280;67697;50.750;-3.270;2023-08-31T03:49:30;100236.89;;;19.39;51.86
78409;BME280;67697;50.750;-3.270;2023-08-31T03:51:56;100238.63;;;19.46;51.40
78409;BME280;67697;50.750;-3.270;2023-08-31T03:54:22;100243.89;;;18.61;53.54
78409;BME280;67697;50.750;-3.270;2023-08-31T03:56:47;100242.83;;;18.80;53.78
78409;BME280;67697;50.750;-3.270;2023-08-31T03:59:13;100240.23;;;19.37;52.28
78409;BME280;67697;50.750;-3.270;2023-08-31T04:01:38;100246.79;;;18.00;55.27
78409;BME280;67697;50.750;-3.270;2023-08-31T04:04:04;100246.17;;;17.96;55.94
78409;BME280;67697;50.750;-3.270;2023-08-31T04:06:30;100244.52;;;18.73;54.70
78409;BME280;67697;50.750;-3.270;2023-08-31T04:08:55;100244.81;;;19.35;52.96
78409;BME280;67697;50.750;-3.270;2023-08-31T04:11:21;100252.18;;;16.96;58.58
78409;BME280;67697;50.750;-3.270;2023-08-31T04:13:47;100250.38;;;18.96;53.90
78409;BME280;67697;50.750;-3.270;2023-08-31T04:16:12;100248.18;;;18.88;54.03
78409;BME280;67697;50.750;-3.270;2023-08-31T04:18:37;100243.52;;;19.45;52.43
78409;BME280;67697;50.750;-3.270;2023-08-31T04:21:03;100243.23;;;18.64;54.87
78409;BME280;67697;50.750;-3.270;2023-08-31T04:23:28;100240.95;;;18.77;54.29
78409;BME280;67697;50.750;-3.270;2023-08-31T04:25:54;100237.97;;;18.75;53.46
78409;BME280;67697;50.750;-3.270;2023-08-31T04:28:20;100237.70;;;18.82;55.45
78409;BME280;67697;50.750;-3.270;2023-08-31T04:30:45;100238.43;;;18.42;56.46
78409;BME280;67697;50.750;-3.270;2023-08-31T04:33:11;100235.51;;;18.93;55.49
78409;BME280;67697;50.750;-3.270;2023-08-31T04:35:36;100234.96;;;18.45;56.14
78409;BME280;67697;50.750;-3.270;2023-08-31T04:38:02;100235.61;;;17.85;58.17
78409;BME280;67697;50.750;-3.270;2023-08-31T04:40:27;100239.07;;;18.12;58.16
78409;BME280;67697;50.750;-3.270;2023-08-31T04:42:53;100232.71;;;19.16;55.79
78409;BME280;67697;50.750;-3.270;2023-08-31T04:45:19;100231.02;;;19.41;54.74
78409;BME280;67697;50.750;-3.270;2023-08-31T04:47:44;100230.42;;;19.32;54.05
78409;BME280;67697;50.750;-3.270;2023-08-31T04:50:10;100225.98;;;19.08;54.92
78409;BME280;67697;50.750;-3.270;2023-08-31T04:52:35;100227.25;;;19.24;54.41
78409;BME280;67697;50.750;-3.270;2023-08-31T04:55:01;100233.46;;;17.94;57.23
78409;BME280;67697;50.750;-3.270;2023-08-31T04:57:26;100233.07;;;18.05;57.86
78409;BME280;67697;50.750;-3.270;2023-08-31T04:59:52;100233.41;;;17.93;57.67
78409;BME280;67697;50.750;-3.270;2023-08-31T05:02:17;100232.84;;;17.78;57.86
78409;BME280;67697;50.750;-3.270;2023-08-31T05:04:43;100230.29;;;17.53;60.38
78409;BME280;67697;50.750;-3.270;2023-08-31T05:07:09;100229.61;;;18.19;57.96
78409;BME280;67697;50.750;-3.270;2023-08-31T05:09:34;100230.06;;;18.30;57.66
78409;BME280;67697;50.750;-3.270;2023-08-31T05:12:00;100233.62;;;18.98;56.00
78409;BME280;67697;50.750;-3.270;2023-08-31T05:14:26;100236.51;;;18.12;58.22
78409;BME280;67697;50.750;-3.270;2023-08-31T05:16:51;100236.72;;;15.76;64.42
78409;BME280;67697;50.750;-3.270;2023-08-31T05:19:16;100234.27;;;16.04;64.99
78409;BME280;67697;50.750;-3.270;2023-08-31T05:21:42;100223.95;;;18.72;58.88
78409;BME280;67697;50.750;-3.270;2023-08-31T05:24:08;100221.38;;;17.69;60.37
78409;BME280;67697;50.750;-3.270;2023-08-31T05:26:33;100217.19;;;18.50;58.67
78409;BME280;67697;50.750;-3.270;2023-08-31T05:28:59;100216.82;;;18.93;56.76
78409;BME280;67697;50.750;-3.270;2023-08-31T05:31:25;100210.96;;;18.92;56.46
78409;BME280;67697;50.750;-3.270;2023-08-31T05:33:50;100208.57;;;19.16;56.41
78409;BME280;67697;50.750;-3.270;2023-08-31T05:36:15;100211.56;;;19.00;56.72
78409;BME280;67697;50.750;-3.270;2023-08-31T05:38:41;100206.10;;;19.03;56.86
78409;BME280;67697;50.750;-3.270;2023-08-31T05:41:07;100203.33;;;18.88;56.78
78409;BME280;67697;50.750;-3.270;2023-08-31T05:43:33;100202.64;;;17.39;60.34
78409;BME280;67697;50.750;-3.270;2023-08-31T05:45:58;100198.45;;;17.05;61.83
78409;BME280;67697;50.750;-3.270;2023-08-31T05:48:23;100199.19;;;15.72;67.83
78409;BME280;67697;50.750;-3.270;2023-08-31T05:50:49;100200.99;;;15.21;70.74
78409;BME280;67697;50.750;-3.270;2023-08-31T05:53:15;100196.27;;;15.95;69.64
78409;BME280;67697;50.750;-3.270;2023-08-31T05:55:40;100200.40;;;15.33;73.34
78409;BME280;67697;50.750;-3.270;2023-08-31T05:58:06;100197.89;;;14.94;75.64
78409;BME280;67697;50.750;-3.270;2023-08-31T06:00:31;100194.62;;;15.66;74.19
78409;BME280;67697;50.750;-3.270;2023-08-31T06:02:57;100195.23;;;12.68;83.05
78409;BME280;67697;50.750;-3.270;2023-08-31T06:05:23;100193.31;;;11.98;86.68
78409;BME280;67697;50.750;-3.270;2023-08-31T06:07:48;100190.36;;;13.24;82.45
78409;BME280;67697;50.750;-3.270;2023-08-31T06:10:14;100188.90;;;12.32;86.43
78409;BME280;67697;50.750;-3.270;2023-08-31T06:12:39;100186.71;;;13.74;82.06
78409;BME280;67697;50.750;-3.270;2023-08-31T06:15:06;100188.85;;;13.20;84.81
78409;BME280;67697;50.750;-3.270;2023-08-31T06:17:31;100181.70;;;12.70;85.58
78409;BME280;67697;50.750;-3.270;2023-08-31T06:19:56;100177.28;;;13.02;84.18
78409;BME280;67697;50.750;-3.270;2023-08-31T06:22:22;100176.46;;;13.36;84.21
78409;BME280;67697;50.750;-3.270;2023-08-31T06:24:48;100173.00;;;14.42;80.16
78409;BME280;67697;50.750;-3.270;2023-08-31T06:27:13;100162.84;;;13.63;83.49
78409;BME280;67697;50.750;-3.270;2023-08-31T06:29:39;100160.16;;;14.02;81.63
78409;BME280;67697;50.750;-3.270;2023-08-31T06:32:05;100164.34;;;12.46;87.15
78409;BME280;67697;50.750;-3.270;2023-08-31T06:34:30;100158.02;;;13.37;87.16
78409;BME280;67697;50.750;-3.270;2023-08-31T06:36:56;100156.88;;;12.21;90.52
78409;BME280;67697;50.750;-3.270;2023-08-31T06:39:21;100155.48;;;13.40;86.43
78409;BME280;67697;50.750;-3.270;2023-08-31T06:41:47;100159.20;;;12.59;89.62
78409;BME280;67697;50.750;-3.270;2023-08-31T06:44:12;100160.38;;;12.35;90.61
78409;BME280;67697;50.750;-3.270;2023-08-31T06:46:38;100156.25;;;12.34;90.48
78409;BME280;67697;50.750;-3.270;2023-08-31T06:49:04;100158.04;;;12.14;92.94
78409;BME280;67697;50.750;-3.270;2023-08-31T06:51:29;100159.18;;;12.76;92.36
78409;BME280;67697;50.750;-3.270;2023-08-31T06:53:55;100160.26;;;11.92;96.53
78409;BME280;67697;50.750;-3.270;2023-08-31T06:56:20;100161.21;;;12.32;93.75
78409;BME280;67697;50.750;-3.270;2023-08-31T06:58:47;100162.18;;;12.98;91.13
78409;BME280;67697;50.750;-3.270;2023-08-31T07:01:13;100163.75;;;12.16;94.31
78409;BME280;67697;50.750;-3.270;2023-08-31T07:03:38;100161.94;;;12.04;96.14
78409;BME280;67697;50.750;-3.270;2023-08-31T07:06:03;100158.35;;;12.35;93.53
78409;BME280;67697;50.750;-3.270;2023-08-31T07:08:29;100147.93;;;12.16;93.85
78409;BME280;67697;50.750;-3.270;2023-08-31T07:10:54;100137.79;;;13.02;90.37
78409;BME280;67697;50.750;-3.270;2023-08-31T07:13:20;100136.98;;;12.06;94.02
78409;BME280;67697;50.750;-3.270;2023-08-31T07:15:46;100138.56;;;12.52;94.00
78409;BME280;67697;50.750;-3.270;2023-08-31T07:18:11;100135.55;;;13.57;87.58
78409;BME280;67697;50.750;-3.270;2023-08-31T07:20:37;100137.01;;;13.40;87.31
78409;BME280;67697;50.750;-3.270;2023-08-31T07:23:02;100138.98;;;11.30;94.33
78409;BME280;67697;50.750;-3.270;2023-08-31T07:25:28;100144.68;;;10.81;98.12
78409;BME280;67697;50.750;-3.270;2023-08-31T07:27:54;100139.47;;;11.95;97.59
78409;BME280;67697;50.750;-3.270;2023-08-31T07:30:19;100144.89;;;11.51;98.17
78409;BME280;67697;50.750;-3.270;2023-08-31T07:32:45;100150.52;;;12.10;95.56
78409;BME280;67697;50.750;-3.270;2023-08-31T07:35:10;100152.53;;;11.60;96.79
78409;BME280;67697;50.750;-3.270;2023-08-31T07:37:36;100153.64;;;11.54;99.08
78409;BME280;67697;50.750;-3.270;2023-08-31T07:40:02;100153.26;;;11.47;97.35
78409;BME280;67697;50.750;-3.270;2023-08-31T07:42:27;100160.17;;;12.53;92.41
78409;BME280;67697;50.750;-3.270;2023-08-31T07:44:53;100160.46;;;13.36;89.21
78409;BME280;67697;50.750;-3.270;2023-08-31T07:47:18;100162.93;;;15.16;78.79
78409;BME280;67697;50.750;-3.270;2023-08-31T07:49:44;100160.80;;;13.90;87.12
78409;BME280;67697;50.750;-3.270;2023-08-31T07:52:10;100159.64;;;12.23;94.52
78409;BME280;67697;50.750;-3.270;2023-08-31T07:54:35;100154.11;;;12.68;92.54
78409;BME280;67697;50.750;-3.270;2023-08-31T07:57:01;100139.94;;;12.19;95.61
78409;BME280;67697;50.750;-3.270;2023-08-31T07:59:26;100130.48;;;11.36;100.00
78409;BME280;67697;50.750;-3.270;2023-08-31T08:01:52;100120.64;;;12.60;95.16
78409;BME280;67697;50.750;-3.270;2023-08-31T08:04:18;100123.79;;;12.61;95.57
78409;BME280;67697;50.750;-3.270;2023-08-31T08:06:43;100121.81;;;12.87;96.04
78409;BME280;67697;50.750;-3.270;2023-08-31T08:09:09;100119.86;;;11.92;96.36
78409;BME280;67697;50.750;-3.270;2023-08-31T08:11:35;100118.69;;;11.28;100.00
78409;BME280;67697;50.750;-3.270;2023-08-31T08:14:00;100113.31;;;12.39;98.61
78409;BME280;67697;50.750;-3.270;2023-08-31T08:16:25;100108.97;;;12.45;95.20
78409;BME280;67697;50.750;-3.270;2023-08-31T08:18:51;100107.33;;;11.35;100.00
78409;BME280;67697;50.750;-3.270;2023-08-31T08:21:17;100102.83;;;11.88;99.01
78409;BME280;67697;50.750;-3.270;2023-08-31T08:23:42;100103.22;;;11.50;100.00
78409;BME280;67697;50.750;-3.270;2023-08-31T08:26:08;100097.97;;;12.59;100.00
78409;BME280;67697;50.750;-3.270;2023-08-31T08:28:34;100096.20;;;12.17;97.73
78409;BME280;67697;50.750;-3.270;2023-08-31T08:31:01;100098.87;;;11.99;99.37
78409;BME280;67697;50.750;-3.270;2023-08-31T08:33:25;100093.43;;;13.39;97.17
78409;BME280;67697;50.750;-3.270;2023-08-31T08:35:50;100086.44;;;11.98;98.40
78409;BME280;67697;50.750;-3.270;2023-08-31T08:38:16;100085.31;;;12.02;100.00
78409;BME280;67697;50.750;-3.270;2023-08-31T08:40:41;100081.17;;;13.18;97.58
78409;BME280;67697;50.750;-3.270;2023-08-31T08:43:07;100076.30;;;12.72;98.59
78409;BME280;67697;50.750;-3.270;2023-08-31T08:45:37;100077.33;;;13.30;98.97
78409;BME280;67697;50.750;-3.270;2023-08-31T08:47:58;100083.03;;;12.38;100.00
78409;BME280;67697;50.750;-3.270;2023-08-31T08:50:24;100084.72;;;13.85;97.30
78409;BME280;67697;50.750;-3.270;2023-08-31T08:52:50;100088.63;;;14.00;92.66
78409;BME280;67697;50.750;-3.270;2023-08-31T08:55:15;100089.23;;;13.32;96.06
78409;BME280;67697;50.750;-3.270;2023-08-31T08:57:40;100095.09;;;13.84;92.99
78409;BME280;67697;50.750;-3.270;2023-08-31T09:00:07;100089.37;;;13.85;93.80
78409;BME280;67697;50.750;-3.270;2023-08-31T09:02:32;100103.74;;;12.02;100.00
78409;BME280;67697;50.750;-3.270;2023-08-31T09:04:57;100099.39;;;12.46;98.86
78409;BME280;67697;50.750;-3.270;2023-08-31T09:07:23;100096.76;;;13.54;93.57
78409;BME280;67697;50.750;-3.270;2023-08-31T09:09:49;100098.90;;;12.53;94.39
78409;BME280;67697;50.750;-3.270;2023-08-31T09:12:14;100094.18;;;12.34;100.00
78409;BME280;67697;50.750;-3.270;2023-08-31T09:14:40;100086.20;;;12.48;100.00
78409;BME280;67697;50.750;-3.270;2023-08-31T09:17:05;100079.92;;;12.88;98.62
78409;BME280;67697;50.750;-3.270;2023-08-31T09:19:31;100076.32;;;12.74;98.26
78409;BME280;67697;50.750;-3.270;2023-08-31T09:21:57;100070.94;;;11.71;99.89
78409;BME280;67697;50.750;-3.270;2023-08-31T09:24:22;100074.19;;;13.48;96.28
78409;BME280;67697;50.750;-3.270;2023-08-31T09:26:52;100074.17;;;11.43;100.00
78409;BME280;67697;50.750;-3.270;2023-08-31T09:29:13;100072.90;;;12.47;100.00
78409;BME280;67697;50.750;-3.270;2023-08-31T09:31:42;100077.39;;;12.61;100.00
78409;BME280;67697;50.750;-3.270;2023-08-31T09:34:05;100079.66;;;12.59;100.00
78409;BME280;67697;50.750;-3.270;2023-08-31T09:36:30;100082.56;;;12.66;99.87
78409;BME280;67697;50.750;-3.270;2023-08-31T09:38:57;100081.24;;;13.97;96.62
78409;BME280;67697;50.750;-3.270;2023-08-31T09:41:21;100079.58;;;12.54;99.68
78409;BME280;67697;50.750;-3.270;2023-08-31T09:43:47;100077.76;;;13.03;100.00
78409;BME280;67697;50.750;-3.270;2023-08-31T09:46:13;100077.92;;;12.72;100.00
78409;BME280;67697;50.750;-3.270;2023-08-31T09:48:39;100069.55;;;12.39;100.00
78409;BME280;67697;50.750;-3.270;2023-08-31T09:51:04;100069.50;;;11.69;100.00
78409;BME280;67697;50.750;-3.270;2023-08-31T09:53:31;100062.92;;;12.22;100.00
78409;BME280;67697;50.750;-3.270;2023-08-31T09:55:56;100062.22;;;11.89;100.00
78409;BME280;67697;50.750;-3.270;2023-08-31T09:58:21;100057.64;;;12.10;100.00
78409;BME280;67697;50.750;-3.270;2023-08-31T10:00:47;100052.21;;;12.84;100.00
78409;BME280;67697;50.750;-3.270;2023-08-31T10:03:11;100061.50;;;12.52;100.00
78409;BME280;67697;50.750;-3.270;2023-08-31T10:05:37;100061.89;;;12.22;100.00
78409;BME280;67697;50.750;-3.270;2023-08-31T10:08:03;100059.26;;;11.84;100.00
78409;BME280;67697;50.750;-3.270;2023-08-31T10:10:28;100061.59;;;12.55;100.00
78409;BME280;67697;50.750;-3.270;2023-08-31T10:12:54;100049.85;;;12.92;100.00
78409;BME280;67697;50.750;-3.270;2023-08-31T10:15:19;100069.36;;;12.46;100.00
78409;BME280;67697;50.750;-3.270;2023-08-31T10:17:45;100070.98;;;12.83;100.00
78409;BME280;67697;50.750;-3.270;2023-08-31T10:20:12;100061.66;;;13.65;100.00
78409;BME280;67697;50.750;-3.270;2023-08-31T10:22:37;100070.23;;;13.18;100.00
78409;BME280;67697;50.750;-3.270;2023-08-31T10:25:02;100064.23;;;13.30;100.00
78409;BME280;67697;50.750;-3.270;2023-08-31T10:27:27;100059.64;;;13.18;100.00
78409;BME280;67697;50.750;-3.270;2023-08-31T10:29:52;100072.57;;;12.96;100.00
78409;BME280;67697;50.750;-3.270;2023-08-31T10:32:18;100075.60;;;13.70;100.00
78409;BME280;67697;50.750;-3.270;2023-08-31T10:34:44;100076.79;;;14.12;97.99
78409;BME280;67697;50.750;-3.270;2023-08-31T10:37:20;100085.49;;;12.90;100.00
78409;BME280;67697;50.750;-3.270;2023-08-31T10:39:38;100086.64;;;13.73;99.39
78409;BME280;67697;50.750;-3.270;2023-08-31T10:42:00;100092.71;;;14.45;92.75
78409;BME280;67697;50.750;-3.270;2023-08-31T10:44:27;100082.27;;;15.49;88.08
78409;BME280;67697;50.750;-3.270;2023-08-31T10:46:52;100076.73;;;15.70;86.93
78409;BME280;67697;50.750;-3.270;2023-08-31T10:49:18;100065.32;;;15.80;91.86
78409;BME280;67697;50.750;-3.270;2023-08-31T10:51:44;100060.07;;;14.48;94.48
78409;BME280;67697;50.750;-3.270;2023-08-31T10:54:10;100060.28;;;14.22;98.47
78409;BME280;67697;50.750;-3.270;2023-08-31T10:56:33;100055.60;;;13.70;100.00
78409;BME280;67697;50.750;-3.270;2023-08-31T10:59:00;100063.23;;;14.79;97.95
78409;BME280;67697;50.750;-3.270;2023-08-31T11:03:59;100062.33;;;14.72;98.60
78409;BME280;67697;50.750;-3.270;2023-08-31T11:06:15;100061.05;;;14.23;98.91
78409;BME280;67697;50.750;-3.270;2023-08-31T11:08:41;100056.75;;;14.83;97.20
78409;BME280;67697;50.750;-3.270;2023-08-31T11:11:07;100066.66;;;14.34;95.49
78409;BME280;67697;50.750;-3.270;2023-08-31T11:13:32;100072.29;;;15.35;96.54
78409;BME280;67697;50.750;-3.270;2023-08-31T11:15:58;100078.92;;;14.54;97.27
78409;BME280;67697;50.750;-3.270;2023-08-31T11:18:23;100071.47;;;15.85;95.14
78409;BME280;67697;50.750;-3.270;2023-08-31T11:20:50;100076.09;;;14.92;96.79
78409;BME280;67697;50.750;-3.270;2023-08-31T11:23:14;100084.28;;;15.35;97.83
78409;BME280;67697;50.750;-3.270;2023-08-31T11:25:40;100081.38;;;16.66;90.16
78409;BME280;67697;50.750;-3.270;2023-08-31T11:28:06;100077.47;;;16.54;88.06
78409;BME280;67697;50.750;-3.270;2023-08-31T11:30:32;100075.39;;;15.80;93.00
78409;BME280;67697;50.750;-3.270;2023-08-31T11:32:56;100077.90;;;15.57;95.74
78409;BME280;67697;50.750;-3.270;2023-08-31T11:35:23;100074.80;;;15.51;93.97
78409;BME280;67697;50.750;-3.270;2023-08-31T11:37:50;100075.97;;;16.91;90.26
78409;BME280;67697;50.750;-3.270;2023-08-31T11:40:14;100072.26;;;17.25;89.73
78409;BME280;67697;50.750;-3.270;2023-08-31T11:42:38;100069.26;;;17.90;86.89
78409;BME280;67697;50.750;-3.270;2023-08-31T11:45:05;100074.37;;;17.85;84.45
78409;BME280;67697;50.750;-3.270;2023-08-31T11:47:29;100078.21;;;17.27;85.82
78409;BME280;67697;50.750;-3.270;2023-08-31T11:49:55;100078.19;;;16.00;90.72
78409;BME280;67697;50.750;-3.270;2023-08-31T11:52:20;100074.99;;;17.37;87.30
78409;BME280;67697;50.750;-3.270;2023-08-31T11:54:46;100074.65;;;17.64;85.54
78409;BME280;67697;50.750;-3.270;2023-08-31T11:57:11;100073.43;;;17.57;85.66
78409;BME280;67697;50.750;-3.270;2023-08-31T11:59:38;100077.32;;;15.79;91.31
78409;BME280;67697;50.750;-3.270;2023-08-31T12:02:06;100080.13;;;16.78;87.35
78409;BME280;67697;50.750;-3.270;2023-08-31T12:04:28;100080.74;;;18.90;80.79
78409;BME280;67697;50.750;-3.270;2023-08-31T12:07:00;100084.85;;;18.97;81.80
78409;BME280;67697;50.750;-3.270;2023-08-31T12:09:20;100084.46;;;20.01;77.74
78409;BME280;67697;50.750;-3.270;2023-08-31T12:11:49;100081.84;;;19.95;78.71
78409;BME280;67697;50.750;-3.270;2023-08-31T12:14:19;100083.33;;;21.27;72.61
78409;BME280;67697;50.750;-3.270;2023-08-31T12:16:36;100084.24;;;21.61;71.45
78409;BME280;67697;50.750;-3.270;2023-08-31T12:19:02;100089.94;;;21.32;70.59
78409;BME280;67697;50.750;-3.270;2023-08-31T12:21:26;100090.64;;;21.85;68.73
78409;BME280;67697;50.750;-3.270;2023-08-31T12:23:51;100094.56;;;21.70;68.08
78409;BME280;67697;50.750;-3.270;2023-08-31T12:26:17;100098.50;;;20.92;71.65
78409;BME280;67697;50.750;-3.270;2023-08-31T12:28:42;100096.50;;;20.68;73.45
78409;BME280;67697;50.750;-3.270;2023-08-31T12:31:08;100091.04;;;21.20;73.05
78409;BME280;67697;50.750;-3.270;2023-08-31T12:33:34;100095.57;;;20.74;70.91